createdAt,value
2018-07-17T00:02:41.643Z,2.33
2018-07-17T00:07:36.770Z,2.50
2018-07-17T00:12:31.240Z,2.23
2018-07-17T00:17:26.489Z,2.50
2018-07-17T00:22:21.632Z,2.10
2018-07-17T00:27:16.110Z,2.53
2018-07-17T00:32:10.636Z,2.60
2018-07-17T00:37:05.198Z,1.90
2018-07-17T00:41:59.783Z,2.50
2018-07-17T00:46:54.288Z,2.67
2018-07-17T00:51:49.108Z,2.13
2018-07-17T00:56:44.028Z,2.40
2018-07-17T01:01:44.009Z,2.70
2018-07-17T01:06:44.430Z,2.30
2018-07-17T01:11:44.412Z,2.60
2018-07-17T01:16:39.553Z,2.70
2018-07-17T01:21:33.989Z,2.70
2018-07-17T01:26:28.629Z,2.67
2018-07-17T01:31:23.518Z,2.80
2018-07-17T01:36:18.029Z,2.77
2018-07-17T01:41:12.548Z,2.47
2018-07-17T01:46:07.044Z,2.50
2018-07-17T01:51:01.577Z,2.83
2018-07-17T01:55:56.945Z,2.47
2018-07-17T02:00:51.557Z,2.13
2018-07-17T02:05:45.932Z,2.67
2018-07-17T02:10:40.501Z,2.97
2018-07-17T02:15:35.152Z,2.50
2018-07-17T02:20:29.696Z,2.40
2018-07-17T02:25:24.305Z,2.40
2018-07-17T02:30:18.920Z,3.00
2018-07-17T02:35:13.543Z,3.77
2018-07-17T02:40:08.427Z,4.37
2018-07-17T02:45:03.134Z,5.20
2018-07-17T02:49:57.765Z,5.50
2018-07-17T02:54:52.328Z,5.70
2018-07-17T02:59:46.895Z,4.63
2018-07-17T03:04:41.660Z,4.30
2018-07-17T03:09:36.313Z,4.07
2018-07-17T03:14:30.850Z,3.40
2018-07-17T03:19:25.576Z,4.00
2018-07-17T03:24:20.208Z,4.07
2018-07-17T03:29:14.770Z,4.23
2018-07-17T03:34:09.249Z,3.90
2018-07-17T03:39:03.894Z,3.53
2018-07-17T03:43:58.486Z,4.20
2018-07-17T03:48:53.055Z,4.33
2018-07-17T03:53:47.661Z,4.80
2018-07-17T03:58:42.184Z,4.80
2018-07-17T04:03:37.290Z,4.17
2018-07-17T04:08:32.136Z,4.60
2018-07-17T04:13:27.089Z,4.43
2018-07-17T04:18:21.988Z,4.37
2018-07-17T04:23:16.582Z,4.10
2018-07-17T04:28:11.160Z,4.97
2018-07-17T04:33:05.991Z,5.10
2018-07-17T04:38:00.506Z,4.83
2018-07-17T04:42:55.066Z,5.00
2018-07-17T04:47:49.710Z,5.13
2018-07-17T04:52:45.109Z,5.30
2018-07-17T04:57:41.456Z,5.53
2018-07-17T05:02:36.466Z,5.50
2018-07-17T05:07:31.222Z,5.33
2018-07-17T05:12:25.680Z,4.80
2018-07-17T05:17:20.575Z,5.17
2018-07-17T05:22:16.924Z,4.83
2018-07-17T05:27:13.458Z,4.67
2018-07-17T05:32:08.104Z,4.83
2018-07-17T05:37:02.754Z,4.23
2018-07-17T05:41:57.449Z,4.60
2018-07-17T05:46:52.489Z,5.00
2018-07-17T05:51:47.751Z,4.90
2018-07-17T05:56:42.901Z,4.27
2018-07-17T06:01:37.779Z,5.00
2018-07-17T06:06:32.760Z,4.90
2018-07-17T06:11:27.880Z,4.60
2018-07-17T06:16:22.792Z,4.70
2018-07-17T06:21:17.826Z,4.63
2018-07-17T06:26:12.883Z,4.20
2018-07-17T06:31:07.809Z,4.00
2018-07-17T06:36:02.716Z,4.23
2018-07-17T06:40:57.921Z,4.07
2018-07-17T06:45:52.914Z,3.80
2018-07-17T06:50:47.874Z,4.00
2018-07-17T06:55:43.037Z,4.20
2018-07-17T07:00:37.995Z,4.20
2018-07-17T07:05:32.887Z,3.90
2018-07-17T07:10:28.054Z,3.77
2018-07-17T07:15:22.824Z,3.70
2018-07-17T07:20:17.763Z,4.40
2018-07-17T07:25:12.717Z,3.80
2018-07-17T07:30:07.732Z,4.40
2018-07-17T07:35:02.735Z,4.43
2018-07-17T07:39:57.577Z,3.80
2018-07-17T07:44:52.266Z,4.57
2018-07-17T07:49:47.053Z,4.33
2018-07-17T07:54:41.809Z,4.17
2018-07-17T07:59:36.348Z,5.00
2018-07-17T08:04:31.568Z,5.47
2018-07-17T08:09:26.377Z,4.97
2018-07-17T08:14:21.565Z,6.10
2018-07-17T08:19:16.682Z,6.70
2018-07-17T08:24:11.495Z,6.33
2018-07-17T08:29:06.553Z,5.77
2018-07-17T08:34:01.741Z,5.80
2018-07-17T08:38:56.555Z,5.73
2018-07-17T08:43:51.450Z,5.10
2018-07-17T08:48:46.881Z,4.57
2018-07-17T08:53:42.004Z,4.37
2018-07-17T08:58:36.835Z,4.20
2018-07-17T09:03:31.601Z,3.53
2018-07-17T09:08:26.315Z,2.97
2018-07-17T09:13:21.067Z,3.30
2018-07-17T09:18:15.946Z,2.93
2018-07-17T09:23:11.242Z,3.00
2018-07-17T09:28:06.873Z,2.60
2018-07-17T09:33:02.053Z,2.60
2018-07-17T09:37:56.821Z,2.73
2018-07-17T09:42:51.906Z,2.40
2018-07-17T09:47:46.691Z,2.37
2018-07-17T09:52:41.703Z,2.60
2018-07-17T09:57:36.442Z,2.60
2018-07-17T10:02:31.817Z,2.30
2018-07-17T10:07:27.214Z,2.40
2018-07-17T10:12:22.263Z,3.10
2018-07-17T10:17:17.346Z,3.10
2018-07-17T10:22:12.178Z,2.27
2018-07-17T10:27:08.608Z,3.13
2018-07-17T10:32:03.441Z,3.07
2018-07-17T10:36:58.551Z,2.33
2018-07-17T10:41:53.880Z,2.30
2018-07-17T10:46:48.726Z,1.90
2018-07-17T10:51:43.894Z,1.87
2018-07-17T10:56:38.876Z,2.17
2018-07-17T11:01:34.038Z,2.00
2018-07-17T11:06:28.932Z,1.70
2018-07-17T11:11:24.072Z,1.83
2018-07-17T11:16:18.565Z,1.90
2018-07-17T11:21:14.523Z,1.73
2018-07-17T11:26:09.402Z,1.90
2018-07-17T11:31:04.703Z,1.93
2018-07-17T11:36:00.246Z,2.13
2018-07-17T11:40:55.250Z,2.33
2018-07-17T11:45:50.854Z,2.00
2018-07-17T11:50:45.856Z,1.87
2018-07-17T11:55:41.314Z,2.10
2018-07-17T12:00:36.295Z,2.00
2018-07-17T12:05:32.544Z,2.00
2018-07-17T12:10:27.591Z,2.30
2018-07-17T12:15:23.016Z,1.90
2018-07-17T12:20:17.911Z,2.20
2018-07-17T12:25:13.080Z,2.30
2018-07-17T12:30:08.449Z,2.47
2018-07-17T12:35:03.152Z,2.27
2018-07-17T12:39:59.097Z,2.60
2018-07-17T12:44:53.994Z,2.50
2018-07-17T12:49:48.885Z,2.40
2018-07-17T12:54:43.790Z,2.30
2018-07-17T12:59:38.551Z,2.33
2018-07-17T13:04:33.362Z,2.10
2018-07-17T13:09:28.231Z,2.40
2018-07-17T13:14:23.133Z,2.27
2018-07-17T13:19:18.741Z,2.10
2018-07-17T13:24:13.618Z,2.40
2018-07-17T13:29:08.422Z,2.50
2018-07-17T13:34:03.517Z,2.13
2018-07-17T13:38:58.414Z,2.20
2018-07-17T13:43:53.122Z,2.33
2018-07-17T13:48:49.122Z,2.30
2018-07-17T13:53:44.532Z,2.30
2018-07-17T13:58:39.530Z,2.30
2018-07-17T14:03:34.956Z,2.20
2018-07-17T14:08:29.767Z,2.30
2018-07-17T14:13:24.504Z,2.20
2018-07-17T14:18:19.367Z,2.57
2018-07-17T14:23:14.209Z,2.20
2018-07-17T14:28:09.110Z,2.00
2018-07-17T14:33:06.969Z,2.20
2018-07-17T14:38:01.637Z,2.13
2018-07-17T14:42:56.990Z,2.33
2018-07-17T14:47:52.142Z,2.33
2018-07-17T14:52:47.221Z,2.00
2018-07-17T14:57:41.998Z,2.13
2018-07-17T15:02:37.197Z,2.23
2018-07-17T15:07:32.208Z,2.10
2018-07-17T15:12:27.740Z,2.10
2018-07-17T15:17:22.558Z,2.20
2018-07-17T15:22:17.315Z,2.20
2018-07-17T15:27:12.654Z,2.20
2018-07-17T15:32:07.760Z,2.47
2018-07-17T15:37:03.170Z,2.30
2018-07-17T15:41:58.021Z,2.30
2018-07-17T15:46:52.873Z,2.53
2018-07-17T15:51:47.657Z,2.33
2018-07-17T15:56:42.383Z,2.43
2018-07-17T16:01:36.890Z,2.40
2018-07-17T16:06:31.746Z,2.47
2018-07-17T16:11:26.570Z,2.20
2018-07-17T16:16:21.684Z,2.90
2018-07-17T16:21:16.594Z,2.63
2018-07-17T16:26:11.523Z,3.07
2018-07-17T16:31:06.671Z,3.23
2018-07-17T16:36:01.721Z,2.83
2018-07-17T16:40:56.530Z,4.23
2018-07-17T16:45:51.302Z,12.83
2018-07-17T16:50:46.756Z,7.70
2018-07-17T16:55:41.293Z,8.30
2018-07-17T17:00:36.514Z,3.80
2018-07-17T17:05:31.520Z,3.30
2018-07-17T17:10:27.161Z,3.00
2018-07-17T17:15:22.176Z,3.00
2018-07-17T17:20:17.208Z,2.50
2018-07-17T17:25:14.262Z,2.30
2018-07-17T17:30:10.404Z,2.63
2018-07-17T17:35:06.622Z,3.33
2018-07-17T17:40:02.885Z,3.00
2018-07-17T17:44:59.335Z,3.20
2018-07-17T17:49:55.636Z,3.40
2018-07-17T17:54:51.501Z,3.73
2018-07-17T17:59:48.268Z,4.57
2018-07-17T18:04:42.970Z,4.20
2018-07-17T18:09:37.488Z,4.47
2018-07-17T18:14:32.742Z,4.13
2018-07-17T18:19:27.275Z,3.87
2018-07-17T18:24:21.837Z,4.17
2018-07-17T18:29:16.366Z,4.90
2018-07-17T18:34:12.589Z,4.10
2018-07-17T18:50:14.288Z,5.23
2018-07-17T18:55:10.531Z,3.80
2018-07-17T19:00:08.061Z,3.77
2018-07-17T19:05:04.961Z,3.67
2018-07-17T19:10:02.941Z,4.23
2018-07-17T19:14:57.442Z,4.50
2018-07-17T19:19:51.974Z,3.53
2018-07-17T19:24:46.203Z,2.87
2018-07-17T19:29:40.977Z,5.60
2018-07-17T19:34:35.909Z,4.13
2018-07-17T19:39:30.384Z,3.30
2018-07-17T19:44:25.170Z,4.50
2018-07-17T19:49:19.792Z,3.37
2018-07-17T19:54:14.658Z,3.07
2018-07-17T19:59:09.189Z,3.50
2018-07-17T20:04:03.747Z,3.23
2018-07-17T20:08:58.219Z,3.63
2018-07-17T20:13:52.744Z,3.60
2018-07-17T20:18:47.392Z,3.70
2018-07-17T20:23:42.142Z,4.13
2018-07-17T20:28:36.795Z,3.77
2018-07-17T20:33:31.380Z,4.13
2018-07-17T20:38:26.034Z,4.70
2018-07-17T20:43:20.570Z,3.93
2018-07-17T20:48:15.171Z,3.60
2018-07-17T20:53:09.761Z,3.30
2018-07-17T20:58:04.260Z,3.03
2018-07-17T21:02:58.914Z,3.00
2018-07-17T21:07:53.440Z,2.80
2018-07-17T21:12:48.207Z,2.83
2018-07-17T21:17:42.850Z,2.97
2018-07-17T21:22:37.532Z,2.43
2018-07-17T21:27:32.005Z,2.80
2018-07-17T21:32:27.646Z,2.77
2018-07-17T21:37:22.333Z,2.30
2018-07-17T21:42:16.627Z,2.40
2018-07-17T21:47:12.091Z,2.30
2018-07-17T21:52:06.816Z,2.67
2018-07-17T21:57:04.238Z,2.60
2018-07-17T22:01:58.877Z,2.63
2018-07-17T22:06:53.239Z,2.80
2018-07-17T22:11:47.787Z,2.53
2018-07-17T22:16:42.003Z,2.17
2018-07-17T22:21:36.710Z,2.67
2018-07-17T22:26:31.446Z,2.53
2018-07-17T22:31:27.094Z,2.40
2018-07-17T22:36:21.653Z,2.20
2018-07-17T22:41:16.318Z,2.50
2018-07-17T22:46:11.025Z,2.87
2018-07-17T22:51:05.714Z,2.70
2018-07-17T22:56:00.306Z,2.60
2018-07-17T23:00:54.847Z,2.37
2018-07-17T23:05:49.426Z,2.77
2018-07-17T23:10:44.080Z,2.70
2018-07-17T23:15:39.162Z,2.70
2018-07-17T23:20:33.516Z,3.10
2018-07-17T23:25:31.225Z,3.13
2018-07-17T23:30:25.957Z,3.17
2018-07-17T23:35:21.732Z,3.57
2018-07-17T23:40:16.582Z,3.67
2018-07-17T23:45:11.064Z,4.07
2018-07-17T23:50:06.043Z,3.40
2018-07-17T23:55:00.762Z,3.17
2018-07-17T23:59:55.657Z,3.13
